createdAt,value
2017-10-02T00:00:01.891Z,45.23
2017-10-02T00:02:28.537Z,43.50
2017-10-02T00:04:55.474Z,43.27
2017-10-02T00:07:22.123Z,41.23
2017-10-02T00:09:48.771Z,42.93
2017-10-02T00:12:15.447Z,41.80
2017-10-02T00:14:42.228Z,46.90
2017-10-02T00:17:08.884Z,45.17
2017-10-02T00:19:35.531Z,44.43
2017-10-02T00:22:02.211Z,45.67
2017-10-02T00:24:28.864Z,43.37
2017-10-02T00:26:55.848Z,45.73
2017-10-02T00:29:22.493Z,48.50
2017-10-02T00:31:49.154Z,44.47
2017-10-02T00:34:15.844Z,49.70
2017-10-02T00:36:42.498Z,53.73
2017-10-02T00:39:09.189Z,56.30
2017-10-02T00:41:35.852Z,58.23
2017-10-02T00:44:02.499Z,49.13
2017-10-02T00:46:29.189Z,50.27
2017-10-02T00:48:55.868Z,47.53
2017-10-02T00:51:22.557Z,48.40
2017-10-02T00:53:49.215Z,49.47
2017-10-02T00:56:16.053Z,48.53
2017-10-02T00:58:42.729Z,50.20
2017-10-02T01:01:09.377Z,45.60
2017-10-02T01:03:36.049Z,43.20
2017-10-02T01:06:02.720Z,45.60
2017-10-02T01:08:29.366Z,39.30
2017-10-02T01:10:56.034Z,40.27
2017-10-02T01:13:22.684Z,38.80
2017-10-02T01:15:49.485Z,40.80
2017-10-02T01:18:16.129Z,39.87
2017-10-02T01:20:42.781Z,40.17
2017-10-02T01:23:09.460Z,38.30
2017-10-02T01:25:36.108Z,38.27
2017-10-02T01:28:02.791Z,35.90
2017-10-02T01:30:29.441Z,36.90
2017-10-02T01:32:56.137Z,37.10
2017-10-02T01:35:22.790Z,34.07
2017-10-02T01:37:49.441Z,34.00
2017-10-02T01:40:16.297Z,35.97
2017-10-02T01:42:42.942Z,33.73
2017-10-02T01:45:09.591Z,36.07
2017-10-02T01:47:36.264Z,33.20
2017-10-02T01:50:02.931Z,33.17
2017-10-02T01:52:29.668Z,32.77
2017-10-02T01:54:56.331Z,37.90
2017-10-02T01:57:23.299Z,35.07
2017-10-02T01:59:49.952Z,35.90
2017-10-02T02:02:16.600Z,33.63
2017-10-02T02:04:43.530Z,35.60
2017-10-02T02:07:10.179Z,36.00
2017-10-02T02:09:36.839Z,36.37
2017-10-02T02:12:03.756Z,38.10
2017-10-02T02:14:30.396Z,37.17
2017-10-02T02:16:57.044Z,38.57
2017-10-02T02:19:23.713Z,39.27
2017-10-02T02:21:50.360Z,38.67
2017-10-02T02:24:17.031Z,40.40
2017-10-02T02:26:43.680Z,37.37
2017-10-02T02:29:10.375Z,40.30
2017-10-02T02:31:37.031Z,38.40
2017-10-02T02:34:03.712Z,37.90
2017-10-02T02:36:30.355Z,38.83
2017-10-02T02:38:57.203Z,35.30
2017-10-02T02:41:23.857Z,38.40
2017-10-02T02:43:50.509Z,42.87
2017-10-02T02:46:17.184Z,38.87
2017-10-02T02:48:43.861Z,45.33
2017-10-02T02:51:10.823Z,39.73
2017-10-02T02:53:37.481Z,41.57
2017-10-02T02:56:04.128Z,41.50
2017-10-02T02:58:30.808Z,42.27
2017-10-02T03:00:57.456Z,40.73
2017-10-02T03:03:24.133Z,44.50
2017-10-02T03:05:50.809Z,45.60
2017-10-02T03:08:17.721Z,43.17
2017-10-02T03:10:44.672Z,40.40
2017-10-02T03:13:11.329Z,42.63
2017-10-02T03:15:37.975Z,45.30
2017-10-02T03:18:04.901Z,43.57
2017-10-02T03:20:31.550Z,46.53
2017-10-02T03:22:58.199Z,53.27
2017-10-02T03:25:25.333Z,60.63
2017-10-02T03:27:51.983Z,61.90
2017-10-02T03:30:18.649Z,60.73
2017-10-02T03:32:45.334Z,60.10
2017-10-02T03:35:11.993Z,65.67
2017-10-02T03:37:38.676Z,69.17
2017-10-02T03:40:05.369Z,68.60
2017-10-02T03:42:32.020Z,63.93
2017-10-02T03:44:58.673Z,56.80
2017-10-02T03:47:25.339Z,51.70
2017-10-02T03:49:51.983Z,49.43
2017-10-02T03:52:18.636Z,49.47
2017-10-02T03:54:45.430Z,51.30
2017-10-02T03:57:12.080Z,52.60
2017-10-02T03:59:38.732Z,54.13
2017-10-02T04:02:05.410Z,52.30
2017-10-02T04:04:32.055Z,51.80
2017-10-02T04:06:59.042Z,49.00
2017-10-02T04:09:25.685Z,49.60
2017-10-02T04:11:52.335Z,52.27
2017-10-02T04:14:19.007Z,53.53
2017-10-02T04:16:45.680Z,51.50
2017-10-02T04:19:12.330Z,51.60
2017-10-02T04:21:39.183Z,49.03
2017-10-02T04:24:05.833Z,48.27
2017-10-02T04:26:32.477Z,47.97
2017-10-02T04:28:59.147Z,47.87
2017-10-02T04:31:25.936Z,44.77
2017-10-02T04:33:52.704Z,47.37
2017-10-02T04:36:19.549Z,46.23
2017-10-02T04:38:46.221Z,49.17
2017-10-02T04:41:12.867Z,46.80
2017-10-02T04:43:39.544Z,47.27
2017-10-02T04:46:06.199Z,47.20
2017-10-02T04:48:33.063Z,51.40
2017-10-02T04:50:59.707Z,51.80
2017-10-02T04:53:26.355Z,52.53
2017-10-02T04:55:53.031Z,52.27
2017-10-02T04:58:19.675Z,50.90
2017-10-02T05:00:46.344Z,45.57
2017-10-02T05:03:12.992Z,47.00
2017-10-02T05:05:39.949Z,42.90
2017-10-02T05:08:06.595Z,43.50
2017-10-02T05:10:33.245Z,42.67
2017-10-02T05:12:59.925Z,46.17
2017-10-02T05:15:26.577Z,46.77
2017-10-02T05:17:53.576Z,46.10
2017-10-02T05:20:20.224Z,47.30
2017-10-02T05:22:46.894Z,46.80
2017-10-02T05:25:13.787Z,47.23
2017-10-02T05:27:40.539Z,49.07
2017-10-02T05:30:07.179Z,47.43
2017-10-02T05:32:33.855Z,52.60
2017-10-02T05:35:00.508Z,47.90
2017-10-02T05:37:27.179Z,64.80
2017-10-02T05:39:53.819Z,59.20
2017-10-02T05:42:20.519Z,53.03
2017-10-02T05:44:47.168Z,54.50
2017-10-02T05:47:13.827Z,66.90
2017-10-02T05:49:40.506Z,50.40
2017-10-02T05:52:07.180Z,49.73
2017-10-02T05:54:34.089Z,54.77
2017-10-02T05:57:00.734Z,49.93
2017-10-02T05:59:27.380Z,54.17
2017-10-02T06:01:54.045Z,54.23
2017-10-02T06:04:20.695Z,52.27
2017-10-02T06:06:47.711Z,54.37
2017-10-02T06:09:14.353Z,55.13
2017-10-02T06:11:41.003Z,51.03
2017-10-02T06:14:07.683Z,46.97
2017-10-02T06:16:34.788Z,48.13
2017-10-02T06:19:01.528Z,51.17
2017-10-02T06:21:28.180Z,48.57
2017-10-02T06:23:54.872Z,46.83
2017-10-02T06:26:21.511Z,59.33
2017-10-02T06:28:48.193Z,48.00
2017-10-02T06:31:14.843Z,51.03
2017-10-02T06:33:41.773Z,49.47
2017-10-02T06:36:08.422Z,50.40
2017-10-02T06:38:35.065Z,44.80
2017-10-02T06:41:02.007Z,49.77
2017-10-02T06:43:28.652Z,48.50
2017-10-02T06:45:55.541Z,50.50
2017-10-02T06:48:22.252Z,51.50
2017-10-02T06:50:48.966Z,49.97
2017-10-02T06:53:15.616Z,49.63
2017-10-02T06:55:42.265Z,57.50
2017-10-02T06:58:08.956Z,74.20
2017-10-02T07:00:35.843Z,47.60
2017-10-02T07:03:02.490Z,42.40
2017-10-02T07:05:29.145Z,41.17
2017-10-02T07:07:55.829Z,38.47
2017-10-02T07:10:22.495Z,36.53
2017-10-02T07:12:49.179Z,37.20
2017-10-02T07:15:15.824Z,35.10
2017-10-02T07:17:42.516Z,30.13
2017-10-02T07:20:09.160Z,30.33
2017-10-02T07:22:35.840Z,27.87
2017-10-02T07:25:02.551Z,28.70
2017-10-02T07:27:29.203Z,30.67
2017-10-02T07:29:55.885Z,28.70
2017-10-02T07:32:22.590Z,27.80
2017-10-02T07:34:49.244Z,27.83
2017-10-02T07:37:15.898Z,27.90
2017-10-02T07:39:42.576Z,27.73
2017-10-02T07:42:09.224Z,27.90
2017-10-02T07:44:35.901Z,27.50
2017-10-02T07:47:02.580Z,26.50
2017-10-02T07:49:29.235Z,29.70
2017-10-02T07:51:55.876Z,27.57
2017-10-02T07:54:22.559Z,27.80
2017-10-02T07:56:49.233Z,27.80
2017-10-02T07:59:15.879Z,27.03
2017-10-02T08:01:42.556Z,27.20
2017-10-02T08:04:09.200Z,28.73
2017-10-02T08:06:35.884Z,29.97
2017-10-02T08:09:02.533Z,32.00
2017-10-02T08:11:29.211Z,29.70
2017-10-02T08:13:55.863Z,30.30
2017-10-02T08:16:22.535Z,32.17
2017-10-02T08:18:49.224Z,29.17
2017-10-02T08:21:15.867Z,30.30
2017-10-02T08:23:42.547Z,30.60
2017-10-02T08:26:09.200Z,27.33
2017-10-02T08:28:35.883Z,26.03
2017-10-02T08:31:02.532Z,25.80
2017-10-02T08:33:29.177Z,26.03
2017-10-02T08:35:55.862Z,27.13
2017-10-02T08:38:22.517Z,22.87
2017-10-02T08:40:49.224Z,24.07
2017-10-02T08:43:15.912Z,22.97
2017-10-02T08:45:42.839Z,23.97
2017-10-02T08:48:09.489Z,22.43
2017-10-02T08:50:36.139Z,22.07
2017-10-02T08:53:02.815Z,20.60
2017-10-02T08:55:29.499Z,19.70
2017-10-02T08:57:56.204Z,20.37
2017-10-02T09:00:23.499Z,21.87
2017-10-02T09:02:50.344Z,22.23
2017-10-02T09:05:17.188Z,22.47
2017-10-02T09:07:43.873Z,24.07
2017-10-02T09:10:10.523Z,21.73
2017-10-02T09:12:37.180Z,20.67
2017-10-02T09:15:03.853Z,22.50
2017-10-02T09:17:30.500Z,19.87
2017-10-02T09:19:57.167Z,21.60
2017-10-02T09:22:23.818Z,21.10
2017-10-02T09:24:50.504Z,23.27
2017-10-02T09:27:17.160Z,21.57
2017-10-02T09:29:43.805Z,22.20
2017-10-02T09:32:10.493Z,22.37
2017-10-02T09:34:37.144Z,22.73
2017-10-02T09:37:03.848Z,20.53
2017-10-02T09:39:30.500Z,20.20
2017-10-02T09:41:57.415Z,20.87
2017-10-02T09:44:24.086Z,21.30
2017-10-02T09:46:50.734Z,20.13
2017-10-02T09:49:17.404Z,20.40
2017-10-02T09:51:44.061Z,20.23
2017-10-02T09:54:10.727Z,21.43
2017-10-02T09:56:37.663Z,20.73
2017-10-02T09:59:04.308Z,19.53
2017-10-02T10:01:30.960Z,18.60
2017-10-02T10:03:57.625Z,19.93
2017-10-02T10:06:24.276Z,19.40
2017-10-02T10:08:50.956Z,19.27
2017-10-02T10:11:17.606Z,19.90
2017-10-02T10:13:44.283Z,18.60
2017-10-02T10:16:10.945Z,18.93
2017-10-02T10:18:37.617Z,19.93
2017-10-02T10:21:04.263Z,19.33
2017-10-02T10:23:30.921Z,19.50
2017-10-02T10:25:57.964Z,17.50
2017-10-02T10:28:24.600Z,17.60
2017-10-02T10:30:51.246Z,17.13
2017-10-02T10:33:17.919Z,15.37
2017-10-02T10:35:44.578Z,18.70
2017-10-02T10:38:11.280Z,16.67
2017-10-02T10:40:37.939Z,16.67
2017-10-02T10:43:04.583Z,17.27
2017-10-02T10:45:31.260Z,18.63
2017-10-02T10:47:57.939Z,18.67
2017-10-02T10:50:24.588Z,17.30
2017-10-02T10:52:51.269Z,16.13
2017-10-02T10:55:17.915Z,17.93
2017-10-02T10:57:44.579Z,17.50
2017-10-02T11:00:11.252Z,17.07
2017-10-02T11:02:38.091Z,15.20
2017-10-02T11:05:04.762Z,15.90
2017-10-02T11:07:31.572Z,18.17
2017-10-02T11:09:58.232Z,17.30
2017-10-02T11:12:24.904Z,18.97
2017-10-02T11:14:51.545Z,18.60
2017-10-02T11:17:18.223Z,15.47
2017-10-02T11:19:44.868Z,14.17
2017-10-02T11:22:11.539Z,15.40
2017-10-02T11:24:38.459Z,15.57
2017-10-02T11:27:05.117Z,14.70
2017-10-02T11:29:31.761Z,21.23
2017-10-02T11:31:58.423Z,15.43
2017-10-02T11:34:25.076Z,16.30
2017-10-02T11:36:51.751Z,15.70
2017-10-02T11:39:18.424Z,15.30
2017-10-02T11:41:45.078Z,12.83
2017-10-02T11:44:11.755Z,15.87
2017-10-02T11:46:38.401Z,14.50
2017-10-02T11:49:05.063Z,13.60
2017-10-02T11:51:31.728Z,14.17
2017-10-02T11:53:58.368Z,13.73
2017-10-02T11:56:25.061Z,15.23
2017-10-02T11:58:51.705Z,13.77
2017-10-02T12:01:18.352Z,13.70
2017-10-02T12:03:45.030Z,13.10
2017-10-02T12:06:11.680Z,13.87
2017-10-02T12:08:38.354Z,12.53
2017-10-02T12:11:05.031Z,13.00
2017-10-02T12:13:31.681Z,13.87
2017-10-02T12:15:58.352Z,12.03
2017-10-02T12:18:25.201Z,14.83
2017-10-02T12:20:51.858Z,12.30
2017-10-02T12:23:18.505Z,14.20
2017-10-02T12:25:45.185Z,12.37
2017-10-02T12:28:11.856Z,13.13
2017-10-02T12:30:38.540Z,12.30
2017-10-02T12:33:05.205Z,12.80
2017-10-02T12:35:31.851Z,12.20
2017-10-02T12:37:58.532Z,13.43
2017-10-02T12:40:25.205Z,14.50
2017-10-02T12:42:51.883Z,11.63
2017-10-02T12:45:18.549Z,12.73
2017-10-02T12:47:45.226Z,12.63
2017-10-02T12:50:11.878Z,13.03
2017-10-02T12:52:38.743Z,12.43
2017-10-02T12:55:05.392Z,11.73
2017-10-02T12:57:32.049Z,12.13
2017-10-02T12:59:58.735Z,11.83
2017-10-02T13:02:25.399Z,12.70
2017-10-02T13:04:52.044Z,11.43
2017-10-02T13:07:18.713Z,11.43
2017-10-02T13:09:45.366Z,11.63
2017-10-02T13:12:12.038Z,12.70
2017-10-02T13:14:38.708Z,11.70
2017-10-02T13:17:05.353Z,12.40
2017-10-02T13:19:32.021Z,10.50
2017-10-02T13:21:58.672Z,11.10
2017-10-02T13:24:25.348Z,10.43
2017-10-02T13:26:52.025Z,10.40
2017-10-02T13:29:18.669Z,9.60
2017-10-02T13:31:45.323Z,10.80
2017-10-02T13:34:11.995Z,11.23
2017-10-02T13:36:38.647Z,11.40
2017-10-02T13:39:05.326Z,11.63
2017-10-02T13:41:31.993Z,11.40
2017-10-02T13:43:58.667Z,11.27
2017-10-02T13:46:25.312Z,10.97
2017-10-02T13:48:52.009Z,11.57
2017-10-02T13:51:18.655Z,11.83
2017-10-02T13:53:45.348Z,11.00
2017-10-02T13:56:11.992Z,10.70
2017-10-02T13:58:38.641Z,11.57
2017-10-02T14:01:05.317Z,11.77
2017-10-02T14:03:31.980Z,11.67
2017-10-02T14:05:58.761Z,9.93
2017-10-02T14:08:25.416Z,11.77
2017-10-02T14:10:52.073Z,11.13
2017-10-02T14:13:18.857Z,11.77
2017-10-02T14:15:45.500Z,11.60
2017-10-02T14:18:12.164Z,11.90
2017-10-02T14:20:38.827Z,10.73
2017-10-02T14:23:05.477Z,10.40
2017-10-02T14:25:32.138Z,11.60
2017-10-02T14:27:58.784Z,10.40
2017-10-02T14:30:25.518Z,11.43
2017-10-02T14:32:52.189Z,11.43
2017-10-02T14:35:18.863Z,11.10
2017-10-02T14:44:28.996Z,11.23
2017-10-02T14:46:55.647Z,11.80
2017-10-02T14:49:22.317Z,9.93
2017-10-02T14:51:48.976Z,10.30
2017-10-02T14:54:15.624Z,10.77
2017-10-02T14:56:42.295Z,9.93
2017-10-02T14:59:09.365Z,10.10
2017-10-02T15:01:36.008Z,9.20
2017-10-02T15:04:02.675Z,10.40
2017-10-02T15:06:29.364Z,10.23
2017-10-02T15:08:56.022Z,9.67
2017-10-02T15:11:22.672Z,13.47
2017-10-02T15:13:49.414Z,10.17
2017-10-02T15:16:16.084Z,10.40
2017-10-02T15:18:42.736Z,10.00
2017-10-02T15:21:09.742Z,10.13
2017-10-02T15:23:36.395Z,11.90
2017-10-02T15:26:03.045Z,10.60
2017-10-02T15:28:29.720Z,12.43
2017-10-02T15:30:56.524Z,11.93
2017-10-02T15:33:23.179Z,11.23
2017-10-02T15:35:49.842Z,10.83
2017-10-02T15:38:16.509Z,9.27
2017-10-02T15:40:43.159Z,11.37
2017-10-02T15:43:09.824Z,11.20
2017-10-02T15:45:36.567Z,11.43
2017-10-02T15:48:03.247Z,12.80
2017-10-02T15:50:30.039Z,14.00
2017-10-02T15:52:56.690Z,11.00
2017-10-02T15:55:23.547Z,13.17
2017-10-02T15:57:50.231Z,11.90
2017-10-02T16:00:16.898Z,11.83
2017-10-02T16:02:43.566Z,11.60
2017-10-02T16:05:10.232Z,12.70
2017-10-02T16:07:36.888Z,14.57
2017-10-02T16:10:03.565Z,13.70
2017-10-02T16:12:30.328Z,24.87
2017-10-02T16:14:56.975Z,15.10
2017-10-02T16:17:23.803Z,15.40
2017-10-02T16:19:50.454Z,13.93
2017-10-02T16:22:17.105Z,13.57
2017-10-02T16:24:43.784Z,14.20
2017-10-02T16:27:10.438Z,12.80
2017-10-02T16:29:37.107Z,14.03
2017-10-02T16:32:03.766Z,17.53
2017-10-02T16:34:30.435Z,17.90
2017-10-02T16:36:57.105Z,19.00
2017-10-02T16:39:23.765Z,14.67
2017-10-02T16:41:50.436Z,15.48
2017-10-02T16:44:17.169Z,14.47
2017-10-02T16:46:43.858Z,14.77
2017-10-02T16:49:10.500Z,14.60
2017-10-02T16:51:37.157Z,13.60
2017-10-02T16:54:04.252Z,15.03
2017-10-02T16:56:30.941Z,15.63
2017-10-02T16:58:57.617Z,14.47
2017-10-02T17:01:24.518Z,16.40
2017-10-02T17:03:51.433Z,15.40
2017-10-02T17:06:18.600Z,16.37
2017-10-02T17:08:45.258Z,15.67
2017-10-02T17:11:12.332Z,15.40
2017-10-02T17:13:39.041Z,15.43
2017-10-02T17:16:05.711Z,15.20
2017-10-02T17:18:33.064Z,15.07
2017-10-02T17:20:59.771Z,16.10
2017-10-02T17:23:26.429Z,14.80
2017-10-02T17:25:53.750Z,15.97
2017-10-02T17:28:20.458Z,16.67
2017-10-02T17:30:47.118Z,16.80
2017-10-02T17:33:14.445Z,16.47
2017-10-02T17:35:41.144Z,19.27
2017-10-02T17:38:07.822Z,20.53
2017-10-02T17:40:34.517Z,39.33
2017-10-02T17:43:01.182Z,17.90
2017-10-02T17:45:28.140Z,19.83
2017-10-02T17:47:54.835Z,30.17
2017-10-02T17:50:21.493Z,14.73
2017-10-02T17:52:48.192Z,19.50
2017-10-02T17:55:14.905Z,18.03
2017-10-02T17:57:41.612Z,20.80
2017-10-02T18:00:08.268Z,17.87
2017-10-02T18:02:34.945Z,19.10
2017-10-02T18:05:01.604Z,16.30
2017-10-02T18:07:28.281Z,18.37
2017-10-02T18:09:55.243Z,18.00
2017-10-02T18:12:22.214Z,29.00
2017-10-02T18:14:49.060Z,19.80
2017-10-02T18:17:15.733Z,19.30
2017-10-02T18:19:42.420Z,18.20
2017-10-02T18:22:09.352Z,18.70
2017-10-02T18:24:36.014Z,19.80
2017-10-02T18:27:02.677Z,19.13
2017-10-02T18:29:29.366Z,19.97
2017-10-02T18:31:56.020Z,22.13
2017-10-02T18:34:22.704Z,28.47
2017-10-02T18:36:49.360Z,21.50
2017-10-02T18:39:16.035Z,24.83
2017-10-02T18:41:42.722Z,23.17
2017-10-02T18:44:09.401Z,21.77
2017-10-02T18:46:36.113Z,20.27
2017-10-02T18:49:02.776Z,20.60
2017-10-02T18:51:29.434Z,24.97
2017-10-02T18:53:56.442Z,20.37
2017-10-02T18:56:23.111Z,21.60
2017-10-02T18:58:49.765Z,20.10
2017-10-02T19:01:16.760Z,20.00
2017-10-02T19:03:43.425Z,18.20
2017-10-02T19:06:10.098Z,19.00
2017-10-02T19:08:36.772Z,19.00
2017-10-02T19:11:03.741Z,20.93
2017-10-02T19:13:30.386Z,17.43
2017-10-02T19:15:57.035Z,19.70
2017-10-02T19:18:23.852Z,19.17
2017-10-02T19:20:50.532Z,17.90
2017-10-02T19:23:17.312Z,25.17
2017-10-02T19:25:44.004Z,34.20
2017-10-02T19:28:10.661Z,21.03
2017-10-02T19:30:37.508Z,20.53
2017-10-02T19:33:04.186Z,20.40
2017-10-02T19:35:30.847Z,20.50
2017-10-02T19:37:57.596Z,22.60
2017-10-02T19:40:24.263Z,22.07
2017-10-02T19:42:51.024Z,23.47
2017-10-02T19:45:17.695Z,24.87
2017-10-02T19:47:44.388Z,24.00
2017-10-02T19:50:11.063Z,24.63
2017-10-02T19:52:37.731Z,23.30
2017-10-02T19:55:04.423Z,24.33
2017-10-02T19:57:31.082Z,24.80
2017-10-02T19:59:58.097Z,24.70
2017-10-02T20:02:24.780Z,24.57
2017-10-02T20:04:51.441Z,23.53
2017-10-02T20:07:18.144Z,24.83
2017-10-02T20:09:44.796Z,25.43
2017-10-02T20:12:11.523Z,27.60
2017-10-02T20:14:38.173Z,23.77
2017-10-02T20:17:05.089Z,24.60
2017-10-02T20:19:31.933Z,24.63
2017-10-02T20:21:58.587Z,23.60
2017-10-02T20:24:25.253Z,26.70
2017-10-02T20:26:51.935Z,25.03
2017-10-02T20:29:18.637Z,24.30
2017-10-02T20:31:45.320Z,20.20
2017-10-02T20:34:11.979Z,22.33
2017-10-02T20:36:38.995Z,22.17
2017-10-02T20:39:06.603Z,21.77
2017-10-02T20:41:33.652Z,22.13
2017-10-02T20:44:00.397Z,20.63
2017-10-02T20:46:27.825Z,20.57
2017-10-02T20:48:55.026Z,20.63
2017-10-02T20:51:21.960Z,23.37
2017-10-02T20:53:48.831Z,21.60
2017-10-02T20:56:15.576Z,21.43
2017-10-02T20:58:42.644Z,20.07
2017-10-02T21:01:09.537Z,21.90
2017-10-02T21:03:36.199Z,21.10
2017-10-02T21:06:02.903Z,21.43
2017-10-02T21:08:29.562Z,22.20
2017-10-02T21:10:56.213Z,23.60
2017-10-02T21:13:22.883Z,20.70
2017-10-02T21:15:49.777Z,22.87
2017-10-02T21:18:16.438Z,22.10
2017-10-02T21:20:43.092Z,23.03
2017-10-02T21:23:09.759Z,21.47
2017-10-02T21:25:36.434Z,23.40
2017-10-02T21:28:03.112Z,24.50
2017-10-02T21:30:29.947Z,24.80
2017-10-02T21:32:56.600Z,24.53
2017-10-02T21:35:23.256Z,22.53
2017-10-02T21:37:49.932Z,23.80
2017-10-02T21:40:17.065Z,24.77
2017-10-02T21:42:43.737Z,24.13
2017-10-02T21:45:10.404Z,25.63
2017-10-02T21:47:37.073Z,25.80
2017-10-02T21:50:03.731Z,27.00
2017-10-02T21:52:30.412Z,25.40
2017-10-02T21:54:57.051Z,25.40
2017-10-02T21:57:23.719Z,25.03
2017-10-02T21:59:50.399Z,24.77
2017-10-02T22:02:17.055Z,24.17
2017-10-02T22:04:43.969Z,27.23
2017-10-02T22:07:10.625Z,27.97
2017-10-02T22:09:37.291Z,25.73
2017-10-02T22:12:03.955Z,27.07
2017-10-02T22:14:30.600Z,27.70
2017-10-02T22:16:57.283Z,25.83
2017-10-02T22:19:23.940Z,25.77
2017-10-02T22:21:50.633Z,27.90
2017-10-02T22:24:17.281Z,30.23
2017-10-02T22:26:43.931Z,27.20
2017-10-02T22:29:11.225Z,27.87
2017-10-02T22:31:37.908Z,27.50
2017-10-02T22:34:04.850Z,27.80
2017-10-02T22:36:33.526Z,29.00
2017-10-02T22:39:02.426Z,29.03
2017-10-02T22:41:29.200Z,27.93
2017-10-02T22:43:55.874Z,27.00
2017-10-02T22:46:22.548Z,28.13
2017-10-02T22:48:49.214Z,27.63
2017-10-02T22:51:16.149Z,27.60
2017-10-02T22:53:42.797Z,28.63
2017-10-02T22:56:09.456Z,29.00
2017-10-02T22:58:36.132Z,30.90
2017-10-02T23:01:02.783Z,31.93
2017-10-02T23:03:29.456Z,29.40
2017-10-02T23:05:56.108Z,31.80
2017-10-02T23:08:23.046Z,31.23
2017-10-02T23:10:49.693Z,31.00
2017-10-02T23:13:16.333Z,29.67
2017-10-02T23:15:43.015Z,30.97
2017-10-02T23:18:09.813Z,29.60
2017-10-02T23:20:36.485Z,30.00
2017-10-02T23:23:03.152Z,32.20
2017-10-02T23:25:29.834Z,34.43
2017-10-02T23:27:56.516Z,33.87
2017-10-02T23:30:23.164Z,34.00
2017-10-02T23:32:49.831Z,33.30
2017-10-02T23:35:16.488Z,35.90
2017-10-02T23:37:43.268Z,34.40
2017-10-02T23:40:09.920Z,32.97
2017-10-02T23:42:36.563Z,32.87
2017-10-02T23:45:03.240Z,35.87
2017-10-02T23:47:29.888Z,31.67
2017-10-02T23:49:56.549Z,35.80
2017-10-02T23:52:23.223Z,34.83
2017-10-02T23:54:49.905Z,35.37
2017-10-02T23:57:16.560Z,40.47
2017-10-02T23:59:43.240Z,39.43
